Time;durP1;ratioP1;P1;durP2;ratioP2;P2;SDS_P1;SDS_P2;PMS_P1;PMS_P2;Temp;Humidity;BMP_temperature;BMP_pressure;BME280_temperature;BME280_humidity;BME280_pressure;Samples;Min_cycle;Max_cycle;Signal;HPM_P1;HPM_P2
2021/03/13 00:00:38;;;;;;;17.08;3.47;;;6.80;99.90;;;;;;5094167;28;20016;-68
2021/03/13 00:03:04;;;;;;;15.18;3.53;;;6.80;99.90;;;;;;5094097;28;20107;-68
2021/03/13 00:05:33;;;;;;;5.70;3.45;;;6.90;99.90;;;;;;5094392;28;20036;-68
2021/03/13 00:07:58;;;;;;;8.35;3.08;;;6.90;99.90;;;;;;5094363;28;20023;-68
2021/03/13 00:10:24;;;;;;;9.95;3.20;;;7.00;99.90;;;;;;5075751;28;20028;-68
2021/03/13 00:12:50;;;;;;;7.65;2.95;;;7.00;99.90;;;;;;5092853;28;20032;-68
2021/03/13 00:15:17;;;;;;;8.38;3.08;;;7.10;99.90;;;;;;5094223;28;20020;-68
2021/03/13 00:17:45;;;;;;;10.90;3.03;;;7.00;99.90;;;;;;5093669;28;20097;-68
2021/03/13 00:20:14;;;;;;;7.93;2.78;;;7.00;99.90;;;;;;5094153;28;20030;-68
2021/03/13 00:22:39;;;;;;;8.35;2.60;;;7.00;99.90;;;;;;5094172;28;20016;-68
2021/03/13 00:25:07;;;;;;;11.82;3.05;;;7.00;99.90;;;;;;5093596;28;20483;-68
2021/03/13 00:27:45;;;;;;;6.20;3.25;;;7.00;99.90;;;;;;5092950;28;20020;-68
2021/03/13 00:30:17;;;;;;;7.88;2.67;;;6.90;99.90;;;;;;5093088;28;20028;-68
2021/03/13 00:32:44;;;;;;;9.80;3.38;;;7.00;99.90;;;;;;5075421;28;20085;-69
2021/03/13 00:35:11;;;;;;;9.13;3.45;;;7.00;99.90;;;;;;5093810;28;20069;-68
2021/03/13 00:37:37;;;;;;;9.95;3.08;;;7.00;99.90;;;;;;5094007;28;20028;-68
2021/03/13 00:40:05;;;;;;;8.98;3.22;;;6.90;99.90;;;;;;5092879;28;20115;-68
2021/03/13 00:42:31;;;;;;;11.02;3.03;;;7.00;99.90;;;;;;5094012;28;20024;-68
2021/03/13 00:44:56;;;;;;;9.38;3.10;;;6.90;99.90;;;;;;5093419;28;20110;-68
2021/03/13 00:47:22;;;;;;;14.18;2.95;;;6.90;99.90;;;;;;5092481;28;20071;-68
2021/03/13 00:49:47;;;;;;;8.45;2.50;;;6.90;99.90;;;;;;5093671;28;20059;-68
2021/03/13 00:52:13;;;;;;;7.50;2.67;;;6.90;99.90;;;;;;5093883;28;20024;-68
2021/03/13 00:54:38;;;;;;;13.85;3.65;;;6.90;99.90;;;;;;5093867;28;20073;-68
2021/03/13 00:57:04;;;;;;;11.88;3.38;;;7.00;99.90;;;;;;5093521;28;20034;-68
2021/03/13 00:59:30;;;;;;;13.80;3.10;;;7.10;99.90;;;;;;5093767;28;20027;-68
2021/03/13 01:01:55;;;;;;;15.13;3.35;;;7.00;99.90;;;;;;5096536;28;20024;-68
2021/03/13 01:04:22;;;;;;;11.63;2.92;;;6.90;99.90;;;;;;5097452;28;20023;-68
2021/03/13 01:06:47;;;;;;;14.20;3.45;;;6.90;99.90;;;;;;5097690;28;20012;-68
2021/03/13 01:09:13;;;;;;;12.02;3.15;;;6.90;99.90;;;;;;5097599;28;20028;-68
2021/03/13 01:11:38;;;;;;;15.73;3.10;;;7.00;99.90;;;;;;5095802;28;20111;-68
2021/03/13 01:14:04;;;;;;;14.00;3.05;;;7.00;99.90;;;;;;5097222;28;20380;-69
2021/03/13 01:16:29;;;;;;;9.55;3.10;;;7.00;99.90;;;;;;5097465;28;20442;-68
2021/03/13 01:18:55;;;;;;;16.17;3.22;;;7.10;99.90;;;;;;5095472;28;20040;-68
2021/03/13 01:21:20;;;;;;;16.40;3.05;;;7.10;99.90;;;;;;5096700;28;20028;-68
2021/03/13 01:23:46;;;;;;;14.80;4.32;;;7.10;99.90;;;;;;5097339;28;20048;-68
2021/03/13 01:26:11;;;;;;;8.52;2.70;;;7.10;99.90;;;;;;5097016;28;20031;-68
2021/03/13 01:28:37;;;;;;;10.27;3.03;;;7.20;99.90;;;;;;5097242;28;20476;-68
2021/03/13 01:31:03;;;;;;;10.75;3.13;;;7.20;99.90;;;;;;5096917;28;20418;-68
2021/03/13 01:33:28;;;;;;;16.85;3.20;;;7.20;99.90;;;;;;5096823;28;20475;-68
2021/03/13 01:35:55;;;;;;;15.55;3.13;;;7.20;99.90;;;;;;5097126;28;20028;-69
2021/03/13 01:38:20;;;;;;;10.40;3.88;;;7.20;99.90;;;;;;5097024;28;20028;-68
2021/03/13 01:40:46;;;;;;;17.60;3.33;;;7.20;99.90;;;;;;5096708;28;20016;-68
2021/03/13 01:43:12;;;;;;;14.52;3.95;;;7.20;99.90;;;;;;5096363;28;20032;-68
2021/03/13 01:45:37;;;;;;;10.38;3.17;;;7.20;99.90;;;;;;5096851;28;20477;-68
2021/03/13 01:48:03;;;;;;;17.65;3.63;;;7.20;99.90;;;;;;5096759;28;20030;-68
2021/03/13 01:50:30;;;;;;;10.65;3.25;;;7.20;99.90;;;;;;5096791;28;20051;-68
2021/03/13 01:52:56;;;;;;;15.25;3.53;;;7.20;99.90;;;;;;5078126;28;20049;-68
2021/03/13 01:55:22;;;;;;;13.85;2.90;;;7.20;99.90;;;;;;5096667;28;20032;-68
2021/03/13 01:57:47;;;;;;;17.10;3.70;;;7.20;99.90;;;;;;5096633;28;20107;-68
2021/03/13 02:00:16;;;;;;;15.00;3.67;;;7.20;99.90;;;;;;5095948;28;20024;-68
2021/03/13 02:02:43;;;;;;;9.65;3.08;;;7.20;99.90;;;;;;5096561;28;20023;-68
2021/03/13 02:05:31;;;;;;;12.07;2.90;;;7.10;99.90;;;;;;5096214;28;20020;-68
2021/03/13 02:08:21;;;;;;;12.00;2.97;;;7.20;99.90;;;;;;5096433;28;20020;-68
2021/03/13 02:11:27;;;;;;;9.57;3.05;;;7.20;99.90;;;;;;5080185;28;20024;-68
2021/03/13 02:14:02;;;;;;;8.73;3.13;;;7.20;99.90;;;;;;5095604;28;20481;-68
2021/03/13 02:16:36;;;;;;;7.95;3.00;;;7.10;99.90;;;;;;5094778;28;20020;-68
2021/03/13 02:19:41;;;;;;;11.23;3.70;;;7.10;99.90;;;;;;5094416;28;20055;-68
2021/03/13 02:22:10;;;;;;;12.95;3.58;;;7.10;99.90;;;;;;5094816;28;20423;-68
2021/03/13 02:25:01;;;;;;;9.20;2.97;;;7.10;99.90;;;;;;5094353;28;20054;-68
2021/03/13 02:27:31;;;;;;;10.93;3.90;;;7.10;99.90;;;;;;5095776;28;20031;-68
2021/03/13 02:30:01;;;;;;;5.28;3.47;;;7.20;99.90;;;;;;5094493;28;20035;-68
2021/03/13 02:32:38;;;;;;;7.97;3.63;;;7.10;99.90;;;;;;5095699;28;20024;-68
2021/03/13 02:35:10;;;;;;;10.52;3.63;;;7.10;99.90;;;;;;5095936;28;20432;-68
2021/03/13 02:37:41;;;;;;;6.18;2.90;;;7.10;99.90;;;;;;5095619;28;20028;-67
2021/03/13 02:40:08;;;;;;;14.35;4.18;;;7.00;99.90;;;;;;5095451;28;20059;-68
2021/03/13 02:42:42;;;;;;;9.13;3.80;;;7.00;99.90;;;;;;5094521;28;20058;-68
2021/03/13 02:45:09;;;;;;;10.20;4.15;;;6.90;99.90;;;;;;5094245;28;20411;-69
2021/03/13 02:47:38;;;;;;;11.35;4.05;;;6.90;99.90;;;;;;5095639;28;20016;-68
2021/03/13 02:50:05;;;;;;;11.95;4.63;;;6.80;99.90;;;;;;5094601;28;20024;-68
2021/03/13 02:52:32;;;;;;;11.57;5.03;;;6.70;99.90;;;;;;5095580;28;20105;-68
2021/03/13 02:55:01;;;;;;;12.23;5.20;;;6.60;99.90;;;;;;5093717;28;20027;-69
2021/03/13 02:57:27;;;;;;;13.10;5.80;;;6.50;99.90;;;;;;5095390;28;20031;-69
2021/03/13 02:59:53;;;;;;;11.05;5.47;;;6.50;99.90;;;;;;5095301;28;20465;-69
2021/03/13 03:02:20;;;;;;;9.55;5.68;;;6.50;99.90;;;;;;5095377;28;20023;-67
2021/03/13 03:04:47;;;;;;;9.23;4.85;;;6.40;99.90;;;;;;5095260;28;20016;-67
2021/03/13 03:07:13;;;;;;;11.85;5.80;;;6.40;99.90;;;;;;5095017;28;20380;-67
2021/03/13 03:09:40;;;;;;;7.18;5.25;;;6.30;99.90;;;;;;5094132;28;20024;-67
2021/03/13 03:12:07;;;;;;;7.53;5.25;;;6.30;99.90;;;;;;5094934;28;20026;-67
2021/03/13 03:14:33;;;;;;;10.88;6.13;;;6.20;99.90;;;;;;5095189;28;20032;-68
2021/03/13 03:17:01;;;;;;;10.43;5.63;;;6.20;99.90;;;;;;5093285;28;20400;-67
2021/03/13 03:19:28;;;;;;;12.52;6.07;;;6.20;99.90;;;;;;5094323;28;20567;-67
2021/03/13 03:21:54;;;;;;;11.48;5.93;;;6.10;99.90;;;;;;5095043;28;20021;-67
2021/03/13 03:24:20;;;;;;;9.25;5.82;;;6.10;99.90;;;;;;5094010;28;20016;-67
2021/03/13 03:26:45;;;;;;;11.55;5.95;;;6.20;99.90;;;;;;5094412;28;20031;-67
2021/03/13 03:29:11;;;;;;;12.98;5.68;;;6.10;99.90;;;;;;5094633;28;20024;-67
2021/03/13 03:31:37;;;;;;;6.30;4.63;;;6.10;99.90;;;;;;5094623;28;20122;-67
2021/03/13 03:34:04;;;;;;;14.05;6.22;;;6.10;99.90;;;;;;5094836;28;20028;-67
2021/03/13 03:36:30;;;;;;;8.73;5.82;;;6.10;99.90;;;;;;5094513;28;20452;-67
2021/03/13 03:38:56;;;;;;;13.00;6.25;;;6.00;99.90;;;;;;5094644;28;20063;-67
2021/03/13 03:41:22;;;;;;;10.50;6.82;;;6.00;99.90;;;;;;5094698;28;20381;-67
2021/03/13 03:43:55;;;;;;;10.90;5.93;;;6.00;99.90;;;;;;5094658;28;20085;-67
2021/03/13 03:46:22;;;;;;;9.13;5.60;;;6.00;99.90;;;;;;5094359;28;20044;-67
2021/03/13 03:48:49;;;;;;;8.18;5.28;;;6.00;99.90;;;;;;5094338;28;20047;-67
2021/03/13 03:51:15;;;;;;;9.88;5.57;;;5.90;99.90;;;;;;5094276;28;20055;-67
2021/03/13 03:53:44;;;;;;;11.18;5.88;;;5.90;99.90;;;;;;5094245;28;20435;-67
2021/03/13 03:56:11;;;;;;;8.23;4.70;;;6.00;99.90;;;;;;5094221;28;20124;-67
2021/03/13 03:58:41;;;;;;;10.07;5.35;;;5.90;99.90;;;;;;5094115;28;20518;-67
2021/03/13 04:01:07;;;;;;;7.45;4.82;;;6.00;99.90;;;;;;5092601;28;20055;-67
2021/03/13 04:03:36;;;;;;;6.82;5.00;;;6.00;99.90;;;;;;5094404;28;20041;-67
2021/03/13 04:06:01;;;;;;;8.85;5.28;;;5.90;99.90;;;;;;5094033;28;20480;-67
2021/03/13 04:08:28;;;;;;;7.32;5.30;;;5.90;99.90;;;;;;5094301;28;20020;-67
2021/03/13 04:10:55;;;;;;;7.55;5.65;;;5.90;99.90;;;;;;5093131;28;20016;-67
2021/03/13 04:13:21;;;;;;;7.60;5.57;;;5.90;99.90;;;;;;5093984;28;20028;-67
2021/03/13 04:15:48;;;;;;;6.97;4.68;;;5.90;99.90;;;;;;5094249;28;20472;-67
2021/03/13 04:18:16;;;;;;;6.95;4.38;;;5.90;99.90;;;;;;5075302;28;20051;-67
2021/03/13 04:20:46;;;;;;;7.18;4.60;;;5.90;99.90;;;;;;5093918;28;20027;-67
2021/03/13 04:23:12;;;;;;;5.90;4.47;;;5.90;99.90;;;;;;5093620;28;20024;-67
2021/03/13 04:25:39;;;;;;;7.97;5.28;;;5.90;99.90;;;;;;5093833;28;20405;-67
2021/03/13 04:28:05;;;;;;;7.47;4.45;;;5.90;99.90;;;;;;5094077;28;20055;-67
2021/03/13 04:30:31;;;;;;;6.90;4.10;;;5.90;99.90;;;;;;5094100;28;20028;-67
2021/03/13 04:32:58;;;;;;;4.90;3.67;;;5.90;99.90;;;;;;5094042;28;20491;-67
2021/03/13 04:35:25;;;;;;;4.90;4.05;;;5.90;99.90;;;;;;5096067;28;20024;-67
2021/03/13 04:37:51;;;;;;;8.88;3.63;;;5.90;99.90;;;;;;5097677;28;20605;-67
2021/03/13 04:40:17;;;;;;;3.97;3.35;;;5.90;99.90;;;;;;5097837;28;20107;-67
2021/03/13 04:42:45;;;;;;;4.82;2.88;;;6.00;99.90;;;;;;5097838;28;20101;-67
2021/03/13 04:45:13;;;;;;;4.15;3.00;;;6.00;99.90;;;;;;5096288;28;20026;-67
2021/03/13 04:47:43;;;;;;;3.70;2.95;;;6.00;99.90;;;;;;5098066;28;20012;-67
2021/03/13 04:50:10;;;;;;;4.20;2.35;;;6.00;99.90;;;;;;5097731;28;20051;-67
2021/03/13 04:52:36;;;;;;;4.90;2.35;;;6.00;99.90;;;;;;5096642;28;20020;-67
2021/03/13 04:55:01;;;;;;;5.50;2.08;;;6.10;99.90;;;;;;5097909;28;20081;-67
2021/03/13 04:57:27;;;;;;;3.75;2.17;;;6.10;99.90;;;;;;5097565;28;20032;-67
2021/03/13 04:59:53;;;;;;;3.47;1.95;;;6.10;99.90;;;;;;5097782;28;20038;-67
2021/03/13 05:02:18;;;;;;;2.47;1.80;;;6.10;99.90;;;;;;5097497;28;20410;-67
2021/03/13 05:04:44;;;;;;;3.70;2.08;;;6.20;99.90;;;;;;5095922;28;20020;-67
2021/03/13 05:07:09;;;;;;;5.10;2.08;;;6.30;99.90;;;;;;5097389;28;20147;-67
2021/03/13 05:09:35;;;;;;;1.92;1.77;;;6.30;99.90;;;;;;5097606;28;20028;-67
2021/03/13 05:12:01;;;;;;;4.00;2.10;;;6.40;99.90;;;;;;5097567;28;20107;-67
2021/03/13 05:14:27;;;;;;;2.13;1.50;;;6.40;99.90;;;;;;5097538;28;20039;-67
2021/03/13 05:16:53;;;;;;;3.22;1.80;;;6.50;99.90;;;;;;5096950;28;20028;-67
2021/03/13 05:19:18;;;;;;;1.70;1.30;;;6.50;99.90;;;;;;5096767;28;20557;-67
2021/03/13 05:21:44;;;;;;;2.50;1.20;;;6.50;99.90;;;;;;5095924;28;20024;-67
2021/03/13 05:24:09;;;;;;;1.88;1.42;;;6.60;99.90;;;;;;5097355;28;20031;-67
2021/03/13 05:26:35;;;;;;;3.92;1.38;;;6.50;99.90;;;;;;5097308;28;20099;-67
2021/03/13 05:29:01;;;;;;;2.80;1.35;;;6.60;99.90;;;;;;5097276;28;20119;-67
2021/03/13 05:31:26;;;;;;;4.03;1.50;;;6.60;99.90;;;;;;5097212;28;20044;-67
2021/03/13 05:33:52;;;;;;;4.55;1.90;;;6.60;99.90;;;;;;5097169;28;20101;-67
2021/03/13 05:36:17;;;;;;;3.25;1.30;;;6.50;99.90;;;;;;5097106;28;20161;-67
2021/03/13 05:38:43;;;;;;;1.98;1.30;;;6.60;99.90;;;;;;5096983;28;20526;-67
2021/03/13 05:41:10;;;;;;;1.88;1.00;;;6.50;99.90;;;;;;5097049;28;20024;-67
2021/03/13 05:43:38;;;;;;;3.45;1.00;;;6.50;99.90;;;;;;5095801;28;20373;-67
2021/03/13 05:46:05;;;;;;;2.47;0.98;;;6.50;99.90;;;;;;5095679;28;20020;-67
2021/03/13 05:48:33;;;;;;;1.98;1.00;;;6.50;99.90;;;;;;5096893;28;20024;-67
2021/03/13 05:50:59;;;;;;;1.33;1.00;;;6.50;99.90;;;;;;5096829;28;20453;-67
2021/03/13 05:53:25;;;;;;;1.23;0.90;;;6.50;99.90;;;;;;5096768;28;20039;-67
2021/03/13 05:55:53;;;;;;;1.58;0.88;;;6.50;99.90;;;;;;5096758;28;20024;-67
2021/03/13 05:58:20;;;;;;;0.80;0.80;;;6.60;99.90;;;;;;5096617;28;20017;-67
2021/03/13 06:00:46;;;;;;;0.82;0.70;;;6.60;99.90;;;;;;5096636;28;20024;-67
2021/03/13 06:03:12;;;;;;;2.25;0.70;;;6.60;99.90;;;;;;5096628;28;20456;-67
2021/03/13 06:05:38;;;;;;;1.50;0.70;;;6.70;99.90;;;;;;5096563;28;20024;-67
2021/03/13 06:08:04;;;;;;;2.60;0.52;;;6.80;99.90;;;;;;5096502;28;20031;-67
2021/03/13 06:10:30;;;;;;;1.55;0.90;;;6.80;99.90;;;;;;5096237;28;20368;-67
2021/03/13 06:12:55;;;;;;;1.45;0.80;;;6.90;99.90;;;;;;5096416;28;20032;-67
2021/03/13 06:15:23;;;;;;;1.42;0.73;;;6.80;99.90;;;;;;5096092;28;20067;-67
2021/03/13 06:17:57;;;;;;;1.50;0.68;;;6.80;99.90;;;;;;5096013;28;20044;-67
2021/03/13 06:20:39;;;;;;;0.82;0.68;;;6.90;99.90;;;;;;5095933;28;20051;-67
2021/03/13 06:25:45;;;;;;;0.98;0.68;;;6.90;99.90;;;;;;5112222;27;20348;-68
2021/03/13 06:28:18;;;;;;;1.60;0.70;;;7.00;99.90;;;;;;5110526;28;20459;-68
2021/03/13 06:30:45;;;;;;;1.90;0.70;;;7.10;99.90;;;;;;5110733;28;20023;-68
2021/03/13 06:33:32;;;;;;;2.53;0.80;;;7.20;99.90;;;;;;5111822;28;20020;-68
2021/03/13 06:36:00;;;;;;;1.90;0.77;;;7.20;99.90;;;;;;5111270;28;20063;-68
2021/03/13 06:38:29;;;;;;;1.67;1.05;;;7.20;99.90;;;;;;5111748;28;20386;-68
2021/03/13 06:40:58;;;;;;;1.20;1.00;;;7.20;99.90;;;;;;5109926;28;20048;-68
2021/03/13 06:43:27;;;;;;;1.23;0.80;;;7.30;99.90;;;;;;5110129;28;20443;-68
2021/03/13 06:46:16;;;;;;;3.35;1.10;;;7.30;99.90;;;;;;5111650;28;20077;-68
2021/03/13 06:48:49;;;;;;;2.00;1.30;;;7.40;99.90;;;;;;5109692;28;20482;-68
2021/03/13 06:54:11;;;;;;;3.42;1.25;;;7.40;99.90;;;;;;5112299;27;20351;-68
2021/03/13 06:56:40;;;;;;;2.58;1.10;;;7.50;99.90;;;;;;5111980;28;20103;-69
2021/03/13 06:59:29;;;;;;;1.70;1.10;;;7.40;99.90;;;;;;5111853;28;20027;-69
2021/03/13 07:01:58;;;;;;;5.07;1.20;;;7.50;99.90;;;;;;5111764;28;20398;-69
2021/03/13 07:04:44;;;;;;;1.40;0.85;;;7.60;99.90;;;;;;5111841;28;20372;-69
2021/03/13 07:07:13;;;;;;;1.00;0.80;;;7.70;99.90;;;;;;5111217;28;20024;-69
2021/03/13 07:09:56;;;;;;;2.90;0.68;;;7.70;99.90;;;;;;5109869;28;20115;-69
2021/03/13 07:15:30;;;;;;;2.58;1.10;;;7.70;99.90;;;;;;5112257;27;20416;-69
2021/03/13 07:18:00;;;;;;;1.60;0.77;;;7.70;99.90;;;;;;5111704;28;20085;-69
2021/03/13 07:20:29;;;;;;;2.45;0.90;;;7.70;99.90;;;;;;5111637;28;20077;-68
2021/03/13 07:22:58;;;;;;;2.00;0.73;;;7.70;99.90;;;;;;5111887;28;20073;-68
2021/03/13 07:25:25;;;;;;;0.98;0.85;;;7.70;99.90;;;;;;5110013;28;20024;-68
2021/03/13 07:28:07;;;;;;;0.98;0.73;;;7.70;99.90;;;;;;5111482;28;20020;-68
2021/03/13 07:30:36;;;;;;;2.67;0.70;;;7.70;99.90;;;;;;5111715;28;20094;-68
2021/03/13 07:33:05;;;;;;;1.25;0.80;;;7.70;99.90;;;;;;5111572;28;20077;-68
2021/03/13 07:35:35;;;;;;;1.00;0.80;;;7.80;99.90;;;;;;5093072;28;20027;-68
2021/03/13 07:38:03;;;;;;;4.47;0.80;;;7.80;99.90;;;;;;5111289;28;20050;-68
2021/03/13 07:40:32;;;;;;;3.85;0.88;;;7.80;99.90;;;;;;5110892;28;20487;-68
2021/03/13 07:42:58;;;;;;;1.17;0.60;;;7.90;99.90;;;;;;5110935;28;20026;-68
2021/03/13 07:45:24;;;;;;;1.75;1.00;;;7.90;99.90;;;;;;5111446;28;20145;-68
2021/03/13 07:47:50;;;;;;;1.23;0.90;;;7.90;99.90;;;;;;5110720;28;20065;-69
2021/03/13 07:50:16;;;;;;;1.25;1.00;;;8.00;99.90;;;;;;5111043;28;20024;-68
2021/03/13 07:52:43;;;;;;;2.63;1.15;;;7.90;99.90;;;;;;5111006;28;20348;-68
2021/03/13 07:55:12;;;;;;;1.52;0.68;;;8.00;99.90;;;;;;5110533;28;20044;-68
2021/03/13 07:57:41;;;;;;;0.57;0.50;;;8.00;99.90;;;;;;5111026;28;20020;-69
2021/03/13 08:00:08;;;;;;;1.90;0.80;;;8.00;99.90;;;;;;5111206;28;20472;-69
2021/03/13 08:02:37;;;;;;;1.55;0.93;;;8.00;99.90;;;;;;5111161;28;20444;-68
2021/03/13 08:05:19;;;;;;;0.77;0.60;;;8.00;99.90;;;;;;5111091;28;20475;-68
2021/03/13 08:07:57;;;;;;;2.13;0.80;;;8.00;99.90;;;;;;5110735;28;20469;-68
2021/03/13 08:10:45;;;;;;;1.75;1.00;;;7.90;99.90;;;;;;5110960;28;20026;-67
2021/03/13 08:13:13;;;;;;;1.05;0.82;;;8.00;99.90;;;;;;5110029;28;20072;-67
2021/03/13 08:15:43;;;;;;;2.97;2.10;;;8.00;99.90;;;;;;5110552;28;20020;-67
2021/03/13 08:18:12;;;;;;;3.80;1.77;;;8.00;99.90;;;;;;5109826;28;20449;-67
2021/03/13 08:20:38;;;;;;;4.65;1.85;;;8.00;99.90;;;;;;5110732;28;20042;-67
2021/03/13 08:25:56;;;;;;;2.42;0.98;;;8.00;99.90;;;;;;5112272;27;20354;-67
2021/03/13 08:39:23;;;;;;;1.90;0.82;;;7.90;99.90;;;;;;5112322;27;20348;-67
2021/03/13 08:41:54;;;;;;;1.30;0.63;;;7.90;99.90;;;;;;5111429;28;20028;-67
2021/03/13 08:47:07;;;;;;;2.03;0.70;;;8.00;99.90;;;;;;5112258;27;20405;-67
2021/03/13 08:54:48;;;;;;;2.65;0.80;;;8.00;99.90;;;;;;5112281;27;20113;-67
2021/03/13 08:57:34;;;;;;;1.42;0.80;;;8.00;99.90;;;;;;5110517;28;20028;-67
2021/03/13 09:00:00;;;;;;;1.67;0.80;;;8.00;99.90;;;;;;5111871;28;20027;-67
2021/03/13 09:02:30;;;;;;;4.07;1.00;;;8.00;99.90;;;;;;5111302;28;20465;-67
2021/03/13 09:05:03;;;;;;;4.20;0.93;;;8.00;99.90;;;;;;5111559;28;20031;-67
2021/03/13 09:07:29;;;;;;;6.88;0.85;;;8.00;99.90;;;;;;5111498;28;20491;-67
2021/03/13 09:09:57;;;;;;;3.35;1.00;;;8.00;99.90;;;;;;5111487;28;20032;-67
2021/03/13 09:12:23;;;;;;;3.67;1.40;;;8.10;99.90;;;;;;5110564;28;20427;-67
2021/03/13 09:14:54;;;;;;;4.07;1.20;;;8.20;99.90;;;;;;5111655;28;20027;-68
2021/03/13 09:17:22;;;;;;;4.40;0.90;;;8.20;99.90;;;;;;5111563;28;20102;-67
2021/03/13 09:19:49;;;;;;;5.90;1.23;;;8.10;99.90;;;;;;5111575;28;20181;-67
2021/03/13 09:22:17;;;;;;;9.30;2.05;;;8.10;99.90;;;;;;5111157;28;20016;-67
2021/03/13 09:24:44;;;;;;;4.55;1.33;;;8.10;99.90;;;;;;5110870;28;20020;-67
2021/03/13 09:27:10;;;;;;;3.88;1.65;;;8.10;99.90;;;;;;5109523;28;20532;-67
2021/03/13 09:29:37;;;;;;;6.28;1.23;;;8.10;99.90;;;;;;5110216;28;20115;-67
2021/03/13 09:32:05;;;;;;;3.03;0.93;;;8.10;99.90;;;;;;5109849;28;20019;-67
2021/03/13 09:34:34;;;;;;;5.03;1.63;;;8.10;99.90;;;;;;5110565;28;20030;-67
2021/03/13 09:37:21;;;;;;;2.70;1.77;;;8.10;99.90;;;;;;5111182;28;20020;-67
2021/03/13 09:39:50;;;;;;;5.50;1.20;;;8.10;99.90;;;;;;5111177;28;20027;-67
2021/03/13 09:44:56;;;;;;;5.68;1.58;;;8.20;99.90;;;;;;5112290;27;20396;-67
2021/03/13 09:47:42;;;;;;;5.30;1.52;;;8.10;99.90;;;;;;5112086;28;20197;-67
2021/03/13 09:50:12;;;;;;;2.80;1.10;;;8.10;99.90;;;;;;5111674;28;20048;-67
2021/03/13 09:52:42;;;;;;;5.50;1.40;;;8.10;99.90;;;;;;5111554;28;20020;-67
2021/03/13 09:57:49;;;;;;;4.75;1.38;;;8.20;99.90;;;;;;5132750;27;664452;-65
2021/03/13 10:00:21;;;;;;;8.93;1.95;;;8.30;99.90;;;;;;5132448;27;20035;-67
2021/03/13 10:02:47;;;;;;;6.00;1.85;;;8.30;99.90;;;;;;5132165;27;20487;-66
2021/03/13 10:05:15;;;;;;;8.48;1.35;;;8.30;99.90;;;;;;5132123;27;20031;-68
2021/03/13 10:07:42;;;;;;;3.67;1.38;;;8.20;99.90;;;;;;5132045;27;20103;-67
2021/03/13 10:10:17;;;;;;;9.40;2.90;;;8.20;99.90;;;;;;5132060;27;20047;-68
2021/03/13 10:12:46;;;;;;;4.40;1.38;;;8.20;99.90;;;;;;5132202;27;20021;-67
2021/03/13 10:15:15;;;;;;;5.35;1.60;;;8.30;99.90;;;;;;5132200;27;20016;-67
2021/03/13 10:18:03;;;;;;;8.88;2.17;;;8.20;99.90;;;;;;5131849;27;20031;-67
2021/03/13 10:20:31;;;;;;;7.15;1.35;;;8.30;99.90;;;;;;5132050;27;20098;-67
2021/03/13 10:23:06;;;;;;;7.07;1.35;;;8.20;99.90;;;;;;5131992;27;20019;-67
2021/03/13 10:25:34;;;;;;;7.30;2.03;;;8.30;99.90;;;;;;5131968;27;20050;-67
2021/03/13 10:28:06;;;;;;;6.38;1.70;;;8.40;99.90;;;;;;5131884;27;20368;-67
2021/03/13 10:30:32;;;;;;;6.80;1.50;;;8.70;99.90;;;;;;5131891;27;20341;-67
2021/03/13 10:32:57;;;;;;;6.72;2.42;;;8.80;99.90;;;;;;5131885;27;20094;-67
2021/03/13 10:35:28;;;;;;;6.93;1.45;;;8.70;99.90;;;;;;5131430;28;20061;-67
2021/03/13 10:37:57;;;;;;;9.32;2.10;;;8.70;99.90;;;;;;5130621;28;20149;-67
2021/03/13 10:40:35;;;;;;;10.02;1.80;;;8.50;99.90;;;;;;5130565;28;20015;-67
2021/03/13 10:43:22;;;;;;;7.93;1.83;;;8.40;99.90;;;;;;5130187;28;20023;-67
2021/03/13 10:46:08;;;;;;;6.20;2.00;;;8.80;99.90;;;;;;5131040;27;20015;-67
2021/03/13 10:48:55;;;;;;;8.00;2.05;;;9.70;99.90;;;;;;5130992;27;20034;-67
2021/03/13 10:51:25;;;;;;;7.50;1.98;;;10.40;99.90;;;;;;5131191;27;20023;-67
2021/03/13 10:53:51;;;;;;;10.02;2.05;;;10.60;99.90;;;;;;5131373;28;20015;-68
2021/03/13 10:56:17;;;;;;;10.35;2.25;;;11.30;99.90;;;;;;5130815;27;20043;-68
2021/03/13 10:58:58;;;;;;;8.93;2.20;;;11.60;99.90;;;;;;5131379;27;20020;-68
2021/03/13 11:01:25;;;;;;;5.03;1.90;;;11.10;99.90;;;;;;5131295;27;20019;-68
2021/03/13 11:03:53;;;;;;;11.38;1.75;;;12.20;99.90;;;;;;5131208;27;20068;-66
2021/03/13 11:06:29;;;;;;;6.57;1.92;;;12.20;99.90;;;;;;5129883;28;20027;-66
2021/03/13 11:08:56;;;;;;;8.57;1.95;;;12.50;99.90;;;;;;5118559;27;20047;-68
2021/03/13 11:11:22;;;;;;;10.15;1.98;;;11.70;99.90;;;;;;5116861;28;20044;-68
2021/03/13 11:13:48;;;;;;;7.95;2.20;;;12.10;99.90;;;;;;5117414;28;20026;-69
2021/03/13 11:16:14;;;;;;;6.00;1.95;;;11.70;99.90;;;;;;5116952;28;20106;-69
2021/03/13 11:18:39;;;;;;;8.27;2.10;;;11.00;99.90;;;;;;5117293;28;20098;-69
2021/03/13 11:21:05;;;;;;;9.23;2.42;;;10.80;99.90;;;;;;5117232;28;20072;-68
2021/03/13 11:23:31;;;;;;;8.75;1.90;;;10.70;99.90;;;;;;5117228;28;20096;-70
2021/03/13 11:25:56;;;;;;;13.32;2.40;;;11.10;99.90;;;;;;5117153;28;20032;-68
2021/03/13 11:28:22;;;;;;;7.47;2.05;;;11.20;99.90;;;;;;5117076;28;20028;-68
2021/03/13 11:30:48;;;;;;;6.25;2.00;;;10.60;99.90;;;;;;5116808;28;20027;-69
2021/03/13 11:33:14;;;;;;;7.93;2.17;;;10.30;99.90;;;;;;5098833;28;20031;-68
2021/03/13 11:35:41;;;;;;;11.93;2.22;;;10.40;99.90;;;;;;5115414;28;20028;-68
2021/03/13 11:38:06;;;;;;;12.82;3.10;;;10.70;99.90;;;;;;5116529;28;20098;-69
2021/03/13 11:40:32;;;;;;;7.45;2.13;;;11.00;99.90;;;;;;5116701;28;20066;-70
2021/03/13 11:43:00;;;;;;;9.68;2.45;;;11.30;99.90;;;;;;5115680;28;20095;-69
2021/03/13 11:45:35;;;;;;;11.73;2.78;;;11.20;99.90;;;;;;5116692;28;20015;-68
2021/03/13 11:48:00;;;;;;;15.35;2.90;;;11.30;99.90;;;;;;5116709;28;20024;-66
2021/03/13 11:50:28;;;;;;;6.97;2.50;;;11.00;99.90;;;;;;5115192;28;20095;-66
2021/03/13 11:52:55;;;;;;;14.13;2.42;;;10.70;99.90;;;;;;5115110;28;20028;-68
2021/03/13 11:55:22;;;;;;;7.80;2.00;;;10.30;99.90;;;;;;5116536;28;20464;-68
2021/03/13 11:57:48;;;;;;;12.00;2.97;;;10.00;99.90;;;;;;5114552;28;20083;-67
2021/03/13 12:00:14;;;;;;;14.60;3.65;;;9.80;99.90;;;;;;5115465;28;20031;-67
2021/03/13 12:02:40;;;;;;;16.65;3.05;;;9.70;99.90;;;;;;5115187;28;20171;-67
2021/03/13 12:05:08;;;;;;;13.68;2.80;;;7.90;99.90;;;;;;5116420;28;20581;-67
2021/03/13 12:07:35;;;;;;;12.48;3.13;;;7.30;99.90;;;;;;5116033;28;20448;-68
2021/03/13 12:10:00;;;;;;;16.05;4.82;;;7.50;99.90;;;;;;5116354;28;20030;-66
2021/03/13 12:12:26;;;;;;;12.25;3.05;;;7.70;99.90;;;;;;5116203;28;20016;-67
2021/03/13 12:14:52;;;;;;;14.55;5.57;;;7.50;99.90;;;;;;5115777;28;20030;-66
2021/03/13 12:17:18;;;;;;;14.25;3.60;;;7.50;99.90;;;;;;5115610;27;20116;-66
2021/03/13 12:19:44;;;;;;;13.75;2.88;;;7.50;99.90;;;;;;5114025;28;20456;-66
2021/03/13 12:22:10;;;;;;;13.98;3.70;;;7.60;99.90;;;;;;5115995;28;20027;-66
2021/03/13 12:24:36;;;;;;;16.00;3.67;;;8.10;99.90;;;;;;5115879;28;20027;-66
2021/03/13 12:27:02;;;;;;;18.67;2.55;;;8.50;99.90;;;;;;5114899;28;20463;-66
2021/03/13 12:29:28;;;;;;;15.82;2.92;;;8.60;99.90;;;;;;5116211;28;20016;-66
2021/03/13 12:31:54;;;;;;;16.50;3.45;;;8.80;99.90;;;;;;5115557;27;20032;-66
2021/03/13 12:34:19;;;;;;;11.68;2.85;;;8.80;99.90;;;;;;5115414;28;20099;-66
2021/03/13 12:36:46;;;;;;;14.90;3.35;;;8.80;99.90;;;;;;5115617;28;20076;-66
2021/03/13 12:39:11;;;;;;;13.75;2.75;;;9.10;99.90;;;;;;5115645;28;20016;-66
2021/03/13 12:41:37;;;;;;;17.00;3.67;;;9.20;99.90;;;;;;5115513;28;20022;-66
2021/03/13 12:44:03;;;;;;;13.52;3.38;;;9.10;99.90;;;;;;5115423;28;20023;-66
2021/03/13 12:46:29;;;;;;;12.57;2.95;;;9.00;99.90;;;;;;5115533;28;20116;-66
2021/03/13 12:48:55;;;;;;;7.63;2.45;;;9.10;99.90;;;;;;5114926;28;20026;-65
2021/03/13 12:51:21;;;;;;;8.23;2.05;;;9.40;99.90;;;;;;5115104;28;20024;-66
2021/03/13 12:53:46;;;;;;;6.88;2.28;;;9.40;99.90;;;;;;5115065;28;20034;-66
2021/03/13 12:56:12;;;;;;;9.80;2.60;;;9.30;99.90;;;;;;5114520;28;20044;-67
2021/03/13 12:58:38;;;;;;;12.30;2.78;;;9.00;99.90;;;;;;5115262;28;20055;-66
2021/03/13 13:01:04;;;;;;;13.13;2.90;;;9.00;99.90;;;;;;5115237;28;20015;-67
2021/03/13 13:03:30;;;;;;;12.50;3.05;;;8.90;99.90;;;;;;5113371;28;20027;-66
2021/03/13 13:05:56;;;;;;;12.95;2.90;;;9.00;99.90;;;;;;5115159;28;20019;-67
2021/03/13 13:08:21;;;;;;;12.63;2.88;;;9.00;99.90;;;;;;5115072;28;20051;-67
2021/03/13 13:10:47;;;;;;;11.93;2.22;;;8.90;99.90;;;;;;5114487;28;20023;-67
2021/03/13 13:13:14;;;;;;;11.68;2.88;;;8.90;99.90;;;;;;5114969;28;20031;-66
2021/03/13 13:15:40;;;;;;;15.48;3.28;;;8.80;99.90;;;;;;5114728;28;20035;-66
2021/03/13 13:18:06;;;;;;;10.65;3.58;;;8.50;99.90;;;;;;5114901;28;20023;-66
2021/03/13 13:20:31;;;;;;;15.60;3.60;;;8.10;99.90;;;;;;5114644;28;20073;-66
2021/03/13 13:22:57;;;;;;;11.90;3.53;;;7.80;99.90;;;;;;5114339;28;20024;-66
2021/03/13 13:25:23;;;;;;;4.60;2.17;;;7.20;99.90;;;;;;5114865;28;20425;-67
2021/03/13 13:27:49;;;;;;;16.88;3.85;;;6.30;99.90;;;;;;5114538;28;20030;-66
2021/03/13 13:30:16;;;;;;;6.00;1.98;;;6.10;99.90;;;;;;5114061;27;20051;-66
2021/03/13 13:32:43;;;;;;;3.47;1.50;;;6.00;99.90;;;;;;5114743;28;20527;-67
2021/03/13 13:35:09;;;;;;;6.50;1.20;;;5.90;99.90;;;;;;5114501;28;20019;-67